sensor_id;sensor_type;location;lat;lon;timestamp;P1;durP1;ratioP1;P2;durP2;ratioP2
35110;SDS011;21290;50.158;8.658;2023-12-04T00:01:46;27.07;;;16.23;;
35110;SDS011;21290;50.158;8.658;2023-12-04T00:04:13;28.23;;;15.10;;
35110;SDS011;21290;50.158;8.658;2023-12-04T00:06:41;24.93;;;15.00;;
35110;SDS011;21290;50.158;8.658;2023-12-04T00:09:08;26.57;;;15.67;;
35110;SDS011;21290;50.158;8.658;2023-12-04T00:11:35;24.93;;;14.97;;
35110;SDS011;21290;50.158;8.658;2023-12-04T00:14:01;24.30;;;15.07;;
35110;SDS011;21290;50.158;8.658;2023-12-04T00:16:28;27.37;;;16.03;;
35110;SDS011;21290;50.158;8.658;2023-12-04T00:18:55;29.67;;;15.37;;
35110;SDS011;21290;50.158;8.658;2023-12-04T00:21:22;28.10;;;16.50;;
35110;SDS011;21290;50.158;8.658;2023-12-04T00:23:48;23.63;;;14.67;;
35110;SDS011;21290;50.158;8.658;2023-12-04T00:26:15;25.37;;;15.50;;
35110;SDS011;21290;50.158;8.658;2023-12-04T00:28:41;26.53;;;15.83;;
35110;SDS011;21290;50.158;8.658;2023-12-04T00:31:08;27.97;;;16.40;;
35110;SDS011;21290;50.158;8.658;2023-12-04T00:33:36;19.42;;;11.48;;
35110;SDS011;21290;50.158;8.658;2023-12-04T00:36:03;22.90;;;14.63;;
35110;SDS011;21290;50.158;8.658;2023-12-04T00:38:30;23.93;;;15.50;;
35110;SDS011;21290;50.158;8.658;2023-12-04T00:40:57;27.40;;;15.47;;
35110;SDS011;21290;50.158;8.658;2023-12-04T00:43:24;29.83;;;15.93;;
35110;SDS011;21290;50.158;8.658;2023-12-04T00:45:51;27.77;;;15.87;;
35110;SDS011;21290;50.158;8.658;2023-12-04T00:48:18;25.47;;;15.27;;
35110;SDS011;21290;50.158;8.658;2023-12-04T00:50:44;27.27;;;15.57;;
35110;SDS011;21290;50.158;8.658;2023-12-04T00:53:11;26.33;;;15.97;;
35110;SDS011;21290;50.158;8.658;2023-12-04T00:55:38;31.47;;;16.17;;
35110;SDS011;21290;50.158;8.658;2023-12-04T00:58:04;26.50;;;15.93;;
35110;SDS011;21290;50.158;8.658;2023-12-04T01:00:31;28.67;;;16.73;;
35110;SDS011;21290;50.158;8.658;2023-12-04T01:02:58;25.43;;;15.77;;
35110;SDS011;21290;50.158;8.658;2023-12-04T01:05:25;29.47;;;16.20;;
35110;SDS011;21290;50.158;8.658;2023-12-04T01:07:52;27.27;;;16.30;;
35110;SDS011;21290;50.158;8.658;2023-12-04T01:10:18;30.23;;;16.80;;
35110;SDS011;21290;50.158;8.658;2023-12-04T01:12:46;28.30;;;16.17;;
35110;SDS011;21290;50.158;8.658;2023-12-04T01:15:12;28.77;;;16.60;;
35110;SDS011;21290;50.158;8.658;2023-12-04T01:17:39;27.50;;;16.00;;
35110;SDS011;21290;50.158;8.658;2023-12-04T01:20:06;27.60;;;16.53;;
35110;SDS011;21290;50.158;8.658;2023-12-04T01:22:33;25.63;;;15.33;;
35110;SDS011;21290;50.158;8.658;2023-12-04T01:25:00;28.07;;;15.40;;
35110;SDS011;21290;50.158;8.658;2023-12-04T01:27:27;24.73;;;15.40;;
35110;SDS011;21290;50.158;8.658;2023-12-04T01:29:53;29.80;;;16.27;;
35110;SDS011;21290;50.158;8.658;2023-12-04T01:32:20;26.33;;;15.07;;
35110;SDS011;21290;50.158;8.658;2023-12-04T01:34:47;28.67;;;16.37;;
35110;SDS011;21290;50.158;8.658;2023-12-04T01:37:13;29.37;;;16.83;;
35110;SDS011;21290;50.158;8.658;2023-12-04T01:39:40;25.97;;;15.63;;
35110;SDS011;21290;50.158;8.658;2023-12-04T01:42:06;32.97;;;16.27;;
35110;SDS011;21290;50.158;8.658;2023-12-04T01:44:33;26.73;;;15.67;;
35110;SDS011;21290;50.158;8.658;2023-12-04T01:47:00;28.93;;;16.70;;
35110;SDS011;21290;50.158;8.658;2023-12-04T01:49:27;27.13;;;14.93;;
35110;SDS011;21290;50.158;8.658;2023-12-04T01:51:53;30.30;;;16.80;;
35110;SDS011;21290;50.158;8.658;2023-12-04T01:54:20;28.23;;;16.33;;
35110;SDS011;21290;50.158;8.658;2023-12-04T01:56:47;28.47;;;16.47;;
35110;SDS011;21290;50.158;8.658;2023-12-04T01:59:15;29.43;;;16.57;;
35110;SDS011;21290;50.158;8.658;2023-12-04T02:01:42;27.47;;;15.20;;
35110;SDS011;21290;50.158;8.658;2023-12-04T02:04:09;29.30;;;16.43;;
35110;SDS011;21290;50.158;8.658;2023-12-04T02:06:36;28.70;;;15.93;;
35110;SDS011;21290;50.158;8.658;2023-12-04T02:09:02;30.80;;;17.13;;
35110;SDS011;21290;50.158;8.658;2023-12-04T02:11:29;26.63;;;15.97;;
35110;SDS011;21290;50.158;8.658;2023-12-04T02:13:56;25.90;;;16.30;;
35110;SDS011;21290;50.158;8.658;2023-12-04T02:16:23;26.80;;;16.13;;
35110;SDS011;21290;50.158;8.658;2023-12-04T02:18:53;26.83;;;16.47;;
35110;SDS011;21290;50.158;8.658;2023-12-04T02:21:20;28.07;;;16.80;;
35110;SDS011;21290;50.158;8.658;2023-12-04T02:23:50;26.30;;;15.93;;
35110;SDS011;21290;50.158;8.658;2023-12-04T02:26:18;25.70;;;15.90;;
35110;SDS011;21290;50.158;8.658;2023-12-04T02:28:52;29.83;;;16.03;;
35110;SDS011;21290;50.158;8.658;2023-12-04T02:31:21;28.20;;;17.23;;
35110;SDS011;21290;50.158;8.658;2023-12-04T02:33:52;29.80;;;16.13;;
35110;SDS011;21290;50.158;8.658;2023-12-04T02:36:20;29.10;;;17.20;;
35110;SDS011;21290;50.158;8.658;2023-12-04T02:38:48;23.10;;;12.70;;
35110;SDS011;21290;50.158;8.658;2023-12-04T02:41:15;26.43;;;16.17;;
35110;SDS011;21290;50.158;8.658;2023-12-04T02:43:43;27.92;;;16.73;;
35110;SDS011;21290;50.158;8.658;2023-12-04T02:46:10;31.00;;;17.33;;
35110;SDS011;21290;50.158;8.658;2023-12-04T02:48:37;28.23;;;16.73;;
35110;SDS011;21290;50.158;8.658;2023-12-04T02:51:04;29.33;;;16.10;;
35110;SDS011;21290;50.158;8.658;2023-12-04T02:53:31;29.70;;;16.50;;
35110;SDS011;21290;50.158;8.658;2023-12-04T02:55:58;29.00;;;17.63;;
35110;SDS011;21290;50.158;8.658;2023-12-04T02:58:24;27.80;;;16.23;;
35110;SDS011;21290;50.158;8.658;2023-12-04T03:00:51;29.03;;;16.50;;
35110;SDS011;21290;50.158;8.658;2023-12-04T03:03:18;27.83;;;16.27;;
35110;SDS011;21290;50.158;8.658;2023-12-04T03:05:44;25.13;;;15.37;;
35110;SDS011;21290;50.158;8.658;2023-12-04T03:08:11;28.90;;;16.00;;
35110;SDS011;21290;50.158;8.658;2023-12-04T03:10:38;30.23;;;16.93;;
35110;SDS011;21290;50.158;8.658;2023-12-04T03:13:04;29.07;;;16.33;;
35110;SDS011;21290;50.158;8.658;2023-12-04T03:15:31;28.27;;;15.97;;
35110;SDS011;21290;50.158;8.658;2023-12-04T03:17:58;29.70;;;17.17;;
35110;SDS011;21290;50.158;8.658;2023-12-04T03:20:28;28.80;;;16.07;;
35110;SDS011;21290;50.158;8.658;2023-12-04T03:22:55;28.27;;;16.53;;
35110;SDS011;21290;50.158;8.658;2023-12-04T03:25:22;27.37;;;16.17;;
35110;SDS011;21290;50.158;8.658;2023-12-04T03:27:48;26.80;;;16.40;;
35110;SDS011;21290;50.158;8.658;2023-12-04T03:30:15;27.37;;;16.67;;
35110;SDS011;21290;50.158;8.658;2023-12-04T03:32:42;28.57;;;16.73;;
35110;SDS011;21290;50.158;8.658;2023-12-04T03:35:09;30.40;;;16.60;;
35110;SDS011;21290;50.158;8.658;2023-12-04T03:37:36;27.33;;;15.70;;
35110;SDS011;21290;50.158;8.658;2023-12-04T03:40:03;29.73;;;15.80;;
35110;SDS011;21290;50.158;8.658;2023-12-04T03:42:30;25.67;;;14.87;;
35110;SDS011;21290;50.158;8.658;2023-12-04T03:44:56;31.17;;;17.03;;
35110;SDS011;21290;50.158;8.658;2023-12-04T03:47:23;27.53;;;16.10;;
35110;SDS011;21290;50.158;8.658;2023-12-04T03:49:51;28.47;;;15.87;;
35110;SDS011;21290;50.158;8.658;2023-12-04T03:52:17;27.07;;;15.57;;
35110;SDS011;21290;50.158;8.658;2023-12-04T03:54:44;26.93;;;16.33;;
35110;SDS011;21290;50.158;8.658;2023-12-04T03:57:12;28.83;;;16.73;;
35110;SDS011;21290;50.158;8.658;2023-12-04T03:59:39;25.23;;;16.13;;
35110;SDS011;21290;50.158;8.658;2023-12-04T04:02:05;28.00;;;16.03;;
35110;SDS011;21290;50.158;8.658;2023-12-04T04:04:32;31.00;;;16.73;;
35110;SDS011;21290;50.158;8.658;2023-12-04T04:06:59;27.20;;;15.80;;
35110;SDS011;21290;50.158;8.658;2023-12-04T04:09:26;25.93;;;14.83;;
35110;SDS011;21290;50.158;8.658;2023-12-04T04:11:53;24.87;;;15.03;;
35110;SDS011;21290;50.158;8.658;2023-12-04T04:14:19;27.93;;;17.20;;
35110;SDS011;21290;50.158;8.658;2023-12-04T04:16:46;27.67;;;16.90;;
35110;SDS011;21290;50.158;8.658;2023-12-04T04:19:13;27.20;;;16.17;;
35110;SDS011;21290;50.158;8.658;2023-12-04T04:21:40;27.07;;;16.10;;
35110;SDS011;21290;50.158;8.658;2023-12-04T04:24:07;28.57;;;16.43;;
35110;SDS011;21290;50.158;8.658;2023-12-04T04:26:33;26.93;;;16.60;;
35110;SDS011;21290;50.158;8.658;2023-12-04T04:29:00;27.90;;;17.33;;
35110;SDS011;21290;50.158;8.658;2023-12-04T04:31:27;24.97;;;15.43;;
35110;SDS011;21290;50.158;8.658;2023-12-04T04:33:53;28.00;;;16.67;;
35110;SDS011;21290;50.158;8.658;2023-12-04T04:36:20;27.80;;;16.00;;
35110;SDS011;21290;50.158;8.658;2023-12-04T04:38:47;28.90;;;16.60;;
35110;SDS011;21290;50.158;8.658;2023-12-04T04:41:14;26.63;;;16.53;;
35110;SDS011;21290;50.158;8.658;2023-12-04T04:43:44;26.93;;;15.90;;
35110;SDS011;21290;50.158;8.658;2023-12-04T04:46:10;29.07;;;16.93;;
35110;SDS011;21290;50.158;8.658;2023-12-04T04:48:37;28.90;;;16.40;;
35110;SDS011;21290;50.158;8.658;2023-12-04T04:51:04;28.77;;;16.73;;
35110;SDS011;21290;50.158;8.658;2023-12-04T04:53:31;27.17;;;16.93;;
35110;SDS011;21290;50.158;8.658;2023-12-04T04:55:58;28.40;;;16.10;;
35110;SDS011;21290;50.158;8.658;2023-12-04T04:58:24;27.67;;;17.30;;
35110;SDS011;21290;50.158;8.658;2023-12-04T05:00:51;27.47;;;16.67;;
35110;SDS011;21290;50.158;8.658;2023-12-04T05:03:18;26.53;;;16.03;;
35110;SDS011;21290;50.158;8.658;2023-12-04T05:05:46;26.40;;;15.77;;
35110;SDS011;21290;50.158;8.658;2023-12-04T05:08:13;30.63;;;16.37;;
35110;SDS011;21290;50.158;8.658;2023-12-04T05:10:39;26.97;;;16.33;;
35110;SDS011;21290;50.158;8.658;2023-12-04T05:13:07;26.87;;;16.17;;
35110;SDS011;21290;50.158;8.658;2023-12-04T05:15:33;26.43;;;15.73;;
35110;SDS011;21290;50.158;8.658;2023-12-04T05:18:00;27.57;;;15.90;;
35110;SDS011;21290;50.158;8.658;2023-12-04T05:20:27;28.03;;;16.00;;
35110;SDS011;21290;50.158;8.658;2023-12-04T05:22:54;26.60;;;16.20;;
35110;SDS011;21290;50.158;8.658;2023-12-04T05:25:20;30.30;;;16.73;;
35110;SDS011;21290;50.158;8.658;2023-12-04T05:27:47;26.87;;;16.70;;
35110;SDS011;21290;50.158;8.658;2023-12-04T05:30:15;26.23;;;16.03;;
35110;SDS011;21290;50.158;8.658;2023-12-04T05:32:42;27.57;;;16.53;;
35110;SDS011;21290;50.158;8.658;2023-12-04T05:35:09;28.60;;;15.83;;
35110;SDS011;21290;50.158;8.658;2023-12-04T05:37:36;28.10;;;16.07;;
35110;SDS011;21290;50.158;8.658;2023-12-04T05:40:02;28.67;;;16.67;;
35110;SDS011;21290;50.158;8.658;2023-12-04T05:42:31;26.50;;;15.90;;
35110;SDS011;21290;50.158;8.658;2023-12-04T05:44:57;30.30;;;16.30;;
35110;SDS011;21290;50.158;8.658;2023-12-04T05:47:26;31.40;;;16.27;;
35110;SDS011;21290;50.158;8.658;2023-12-04T05:49:52;25.87;;;15.50;;
35110;SDS011;21290;50.158;8.658;2023-12-04T05:52:19;28.23;;;16.57;;
35110;SDS011;21290;50.158;8.658;2023-12-04T05:54:46;27.30;;;17.00;;
35110;SDS011;21290;50.158;8.658;2023-12-04T05:57:12;31.27;;;17.50;;
35110;SDS011;21290;50.158;8.658;2023-12-04T05:59:39;27.87;;;16.43;;
35110;SDS011;21290;50.158;8.658;2023-12-04T06:02:06;30.40;;;17.30;;
35110;SDS011;21290;50.158;8.658;2023-12-04T06:04:32;30.70;;;16.90;;
35110;SDS011;21290;50.158;8.658;2023-12-04T06:06:59;36.80;;;18.40;;
35110;SDS011;21290;50.158;8.658;2023-12-04T06:09:26;28.43;;;16.77;;
35110;SDS011;21290;50.158;8.658;2023-12-04T06:11:52;28.97;;;17.30;;
35110;SDS011;21290;50.158;8.658;2023-12-04T06:14:19;30.90;;;17.43;;
35110;SDS011;21290;50.158;8.658;2023-12-04T06:16:45;34.23;;;17.10;;
35110;SDS011;21290;50.158;8.658;2023-12-04T06:19:12;29.03;;;17.03;;
35110;SDS011;21290;50.158;8.658;2023-12-04T06:21:39;27.27;;;16.03;;
35110;SDS011;21290;50.158;8.658;2023-12-04T06:24:06;26.67;;;16.10;;
35110;SDS011;21290;50.158;8.658;2023-12-04T06:26:35;26.73;;;16.42;;
35110;SDS011;21290;50.158;8.658;2023-12-04T06:29:05;31.03;;;15.83;;
35110;SDS011;21290;50.158;8.658;2023-12-04T06:31:32;26.90;;;15.47;;
35110;SDS011;21290;50.158;8.658;2023-12-04T06:33:59;33.43;;;15.17;;
35110;SDS011;21290;50.158;8.658;2023-12-04T06:36:26;24.87;;;15.47;;
35110;SDS011;21290;50.158;8.658;2023-12-04T06:38:57;28.67;;;16.23;;
35110;SDS011;21290;50.158;8.658;2023-12-04T06:41:27;24.60;;;15.40;;
35110;SDS011;21290;50.158;8.658;2023-12-04T06:43:54;24.47;;;15.13;;
35110;SDS011;21290;50.158;8.658;2023-12-04T06:46:21;24.90;;;14.70;;
35110;SDS011;21290;50.158;8.658;2023-12-04T06:48:50;26.17;;;15.00;;
35110;SDS011;21290;50.158;8.658;2023-12-04T06:51:20;25.67;;;15.17;;
35110;SDS011;21290;50.158;8.658;2023-12-04T06:53:47;23.50;;;14.93;;
35110;SDS011;21290;50.158;8.658;2023-12-04T06:56:14;24.87;;;14.60;;
35110;SDS011;21290;50.158;8.658;2023-12-04T06:58:45;23.50;;;14.37;;
35110;SDS011;21290;50.158;8.658;2023-12-04T07:01:12;25.00;;;15.50;;
35110;SDS011;21290;50.158;8.658;2023-12-04T07:03:39;23.33;;;14.57;;
35110;SDS011;21290;50.158;8.658;2023-12-04T07:06:06;25.27;;;15.13;;
35110;SDS011;21290;50.158;8.658;2023-12-04T07:08:33;25.60;;;15.37;;
35110;SDS011;21290;50.158;8.658;2023-12-04T07:10:59;24.40;;;15.07;;
35110;SDS011;21290;50.158;8.658;2023-12-04T07:13:26;24.30;;;15.50;;
35110;SDS011;21290;50.158;8.658;2023-12-04T07:15:53;24.87;;;15.67;;
35110;SDS011;21290;50.158;8.658;2023-12-04T07:18:20;26.33;;;15.87;;
35110;SDS011;21290;50.158;8.658;2023-12-04T07:20:47;24.53;;;14.90;;
35110;SDS011;21290;50.158;8.658;2023-12-04T07:23:13;25.33;;;16.07;;
35110;SDS011;21290;50.158;8.658;2023-12-04T07:25:41;26.33;;;15.93;;
35110;SDS011;21290;50.158;8.658;2023-12-04T07:28:07;27.30;;;15.87;;
35110;SDS011;21290;50.158;8.658;2023-12-04T07:30:34;25.30;;;16.50;;
35110;SDS011;21290;50.158;8.658;2023-12-04T07:33:01;27.20;;;15.70;;
35110;SDS011;21290;50.158;8.658;2023-12-04T07:35:28;28.90;;;16.40;;
35110;SDS011;21290;50.158;8.658;2023-12-04T07:37:54;31.73;;;17.07;;
35110;SDS011;21290;50.158;8.658;2023-12-04T07:40:21;29.43;;;17.40;;
35110;SDS011;21290;50.158;8.658;2023-12-04T07:42:49;31.70;;;17.53;;
35110;SDS011;21290;50.158;8.658;2023-12-04T07:45:16;29.27;;;16.47;;
35110;SDS011;21290;50.158;8.658;2023-12-04T07:47:42;29.53;;;17.17;;
35110;SDS011;21290;50.158;8.658;2023-12-04T07:50:09;28.03;;;16.87;;
35110;SDS011;21290;50.158;8.658;2023-12-04T07:52:36;25.90;;;15.43;;
35110;SDS011;21290;50.158;8.658;2023-12-04T07:55:03;27.30;;;15.60;;
35110;SDS011;21290;50.158;8.658;2023-12-04T07:57:30;25.73;;;15.20;;
35110;SDS011;21290;50.158;8.658;2023-12-04T07:59:57;24.37;;;15.10;;
35110;SDS011;21290;50.158;8.658;2023-12-04T08:02:24;24.17;;;14.83;;
35110;SDS011;21290;50.158;8.658;2023-12-04T08:04:50;22.57;;;14.57;;
35110;SDS011;21290;50.158;8.658;2023-12-04T08:07:17;22.70;;;14.43;;
35110;SDS011;21290;50.158;8.658;2023-12-04T08:09:44;24.40;;;15.03;;
35110;SDS011;21290;50.158;8.658;2023-12-04T08:12:11;22.30;;;13.97;;
35110;SDS011;21290;50.158;8.658;2023-12-04T08:14:37;23.47;;;14.23;;
35110;SDS011;21290;50.158;8.658;2023-12-04T08:17:04;22.83;;;14.37;;
35110;SDS011;21290;50.158;8.658;2023-12-04T08:19:31;26.80;;;15.97;;
35110;SDS011;21290;50.158;8.658;2023-12-04T08:21:58;26.97;;;15.97;;
35110;SDS011;21290;50.158;8.658;2023-12-04T08:24:25;23.83;;;15.07;;
35110;SDS011;21290;50.158;8.658;2023-12-04T08:26:51;24.03;;;15.40;;
35110;SDS011;21290;50.158;8.658;2023-12-04T08:29:18;23.20;;;13.83;;
35110;SDS011;21290;50.158;8.658;2023-12-04T08:31:44;22.40;;;14.23;;
35110;SDS011;21290;50.158;8.658;2023-12-04T08:34:11;22.30;;;13.70;;
35110;SDS011;21290;50.158;8.658;2023-12-04T08:36:38;21.93;;;13.70;;
35110;SDS011;21290;50.158;8.658;2023-12-04T08:39:12;22.53;;;14.37;;
35110;SDS011;21290;50.158;8.658;2023-12-04T08:41:39;22.87;;;14.40;;
35110;SDS011;21290;50.158;8.658;2023-12-04T08:44:16;21.50;;;13.10;;
35110;SDS011;21290;50.158;8.658;2023-12-04T08:46:43;21.47;;;13.73;;
35110;SDS011;21290;50.158;8.658;2023-12-04T08:49:10;23.93;;;13.87;;
35110;SDS011;21290;50.158;8.658;2023-12-04T08:51:37;22.27;;;14.07;;
35110;SDS011;21290;50.158;8.658;2023-12-04T08:54:04;22.30;;;13.50;;
35110;SDS011;21290;50.158;8.658;2023-12-04T08:56:36;25.93;;;14.03;;
35110;SDS011;21290;50.158;8.658;2023-12-04T08:59:02;21.80;;;13.87;;
35110;SDS011;21290;50.158;8.658;2023-12-04T09:01:29;26.13;;;14.00;;
35110;SDS011;21290;50.158;8.658;2023-12-04T09:03:56;23.40;;;13.60;;
35110;SDS011;21290;50.158;8.658;2023-12-04T09:06:23;22.17;;;13.80;;
35110;SDS011;21290;50.158;8.658;2023-12-04T09:09:09;20.73;;;12.43;;
35110;SDS011;21290;50.158;8.658;2023-12-04T09:11:42;21.27;;;13.80;;
35110;SDS011;21290;50.158;8.658;2023-12-04T09:14:09;22.27;;;13.13;;
35110;SDS011;21290;50.158;8.658;2023-12-04T09:16:37;20.58;;;12.77;;
35110;SDS011;21290;50.158;8.658;2023-12-04T09:19:03;22.67;;;13.32;;
35110;SDS011;21290;50.158;8.658;2023-12-04T09:21:30;20.63;;;12.95;;
35110;SDS011;21290;50.158;8.658;2023-12-04T09:23:57;21.60;;;13.52;;
35110;SDS011;21290;50.158;8.658;2023-12-04T09:26:24;22.23;;;13.30;;
35110;SDS011;21290;50.158;8.658;2023-12-04T09:28:51;19.17;;;12.70;;
35110;SDS011;21290;50.158;8.658;2023-12-04T09:31:18;19.57;;;13.00;;
35110;SDS011;21290;50.158;8.658;2023-12-04T09:33:45;19.63;;;12.03;;
35110;SDS011;21290;50.158;8.658;2023-12-04T09:36:13;20.20;;;12.95;;
35110;SDS011;21290;50.158;8.658;2023-12-04T09:38:40;20.70;;;12.95;;
35110;SDS011;21290;50.158;8.658;2023-12-04T09:41:07;20.70;;;12.93;;
35110;SDS011;21290;50.158;8.658;2023-12-04T09:43:36;19.73;;;12.53;;
35110;SDS011;21290;50.158;8.658;2023-12-04T09:46:04;20.03;;;13.13;;
35110;SDS011;21290;50.158;8.658;2023-12-04T09:48:30;22.33;;;14.17;;
35110;SDS011;21290;50.158;8.658;2023-12-04T09:50:58;22.97;;;14.30;;
35110;SDS011;21290;50.158;8.658;2023-12-04T09:53:26;19.37;;;13.50;;
35110;SDS011;21290;50.158;8.658;2023-12-04T09:55:54;20.30;;;13.20;;
35110;SDS011;21290;50.158;8.658;2023-12-04T09:58:25;24.30;;;13.07;;
35110;SDS011;21290;50.158;8.658;2023-12-04T10:00:56;21.27;;;12.73;;
35110;SDS011;21290;50.158;8.658;2023-12-04T10:03:24;22.27;;;12.90;;
35110;SDS011;21290;50.158;8.658;2023-12-04T10:05:53;20.70;;;13.23;;
35110;SDS011;21290;50.158;8.658;2023-12-04T10:10:48;25.30;;;12.50;;
35110;SDS011;21290;50.158;8.658;2023-12-04T10:13:14;21.00;;;12.43;;
35110;SDS011;21290;50.158;8.658;2023-12-04T10:16:01;26.50;;;12.77;;
35110;SDS011;21290;50.158;8.658;2023-12-04T10:18:31;27.17;;;12.67;;
35110;SDS011;21290;50.158;8.658;2023-12-04T10:20:58;24.73;;;12.97;;
35110;SDS011;21290;50.158;8.658;2023-12-04T10:23:38;20.80;;;11.93;;
35110;SDS011;21290;50.158;8.658;2023-12-04T10:26:06;19.50;;;12.95;;
35110;SDS011;21290;50.158;8.658;2023-12-04T10:28:34;23.80;;;12.93;;
35110;SDS011;21290;50.158;8.658;2023-12-04T10:31:01;23.67;;;12.70;;
35110;SDS011;21290;50.158;8.658;2023-12-04T10:33:29;22.20;;;12.30;;
35110;SDS011;21290;50.158;8.658;2023-12-04T10:35:57;23.67;;;12.77;;
35110;SDS011;21290;50.158;8.658;2023-12-04T10:38:24;22.27;;;13.50;;
35110;SDS011;21290;50.158;8.658;2023-12-04T10:40:53;19.60;;;12.98;;
35110;SDS011;21290;50.158;8.658;2023-12-04T10:43:21;20.42;;;11.73;;
35110;SDS011;21290;50.158;8.658;2023-12-04T10:45:48;20.52;;;11.50;;
35110;SDS011;21290;50.158;8.658;2023-12-04T10:48:17;18.70;;;11.57;;
35110;SDS011;21290;50.158;8.658;2023-12-04T10:51:09;17.85;;;11.52;;
35110;SDS011;21290;50.158;8.658;2023-12-04T10:53:37;20.42;;;12.18;;
35110;SDS011;21290;50.158;8.658;2023-12-04T10:56:05;17.15;;;11.88;;
35110;SDS011;21290;50.158;8.658;2023-12-04T10:58:34;17.52;;;11.50;;
35110;SDS011;21290;50.158;8.658;2023-12-04T11:01:06;16.80;;;11.38;;
35110;SDS011;21290;50.158;8.658;2023-12-04T11:03:36;19.67;;;11.93;;
35110;SDS011;21290;50.158;8.658;2023-12-04T11:06:10;18.00;;;11.67;;
35110;SDS011;21290;50.158;8.658;2023-12-04T11:08:41;21.23;;;11.52;;
35110;SDS011;21290;50.158;8.658;2023-12-04T11:11:12;18.50;;;11.55;;
35110;SDS011;21290;50.158;8.658;2023-12-04T11:13:42;19.35;;;11.63;;
35110;SDS011;21290;50.158;8.658;2023-12-04T11:16:19;18.85;;;11.90;;
35110;SDS011;21290;50.158;8.658;2023-12-04T11:19:11;16.88;;;10.23;;
35110;SDS011;21290;50.158;8.658;2023-12-04T11:21:47;17.38;;;10.80;;
35110;SDS011;21290;50.158;8.658;2023-12-04T11:24:17;17.95;;;11.73;;
35110;SDS011;21290;50.158;8.658;2023-12-04T11:26:44;20.52;;;11.05;;
35110;SDS011;21290;50.158;8.658;2023-12-04T11:29:11;22.08;;;12.55;;
35110;SDS011;21290;50.158;8.658;2023-12-04T11:31:40;18.60;;;12.07;;
35110;SDS011;21290;50.158;8.658;2023-12-04T11:34:07;16.20;;;11.23;;
35110;SDS011;21290;50.158;8.658;2023-12-04T11:36:36;12.07;;;8.77;;
35110;SDS011;21290;50.158;8.658;2023-12-04T11:39:02;17.55;;;11.38;;
35110;SDS011;21290;50.158;8.658;2023-12-04T11:41:30;16.75;;;10.98;;
35110;SDS011;21290;50.158;8.658;2023-12-04T11:43:57;19.73;;;11.85;;
35110;SDS011;21290;50.158;8.658;2023-12-04T11:46:25;16.77;;;11.35;;
35110;SDS011;21290;50.158;8.658;2023-12-04T11:51:57;17.27;;;11.20;;
35110;SDS011;21290;50.158;8.658;2023-12-04T11:54:26;18.10;;;11.32;;
35110;SDS011;21290;50.158;8.658;2023-12-04T11:57:37;23.70;;;12.13;;
35110;SDS011;21290;50.158;8.658;2023-12-04T11:59:44;17.52;;;11.70;;
35110;SDS011;21290;50.158;8.658;2023-12-04T12:02:11;18.17;;;11.73;;
35110;SDS011;21290;50.158;8.658;2023-12-04T12:04:38;24.73;;;12.40;;
35110;SDS011;21290;50.158;8.658;2023-12-04T12:07:05;18.57;;;12.97;;
35110;SDS011;21290;50.158;8.658;2023-12-04T12:09:33;21.80;;;13.20;;
35110;SDS011;21290;50.158;8.658;2023-12-04T12:12:00;21.67;;;13.60;;
35110;SDS011;21290;50.158;8.658;2023-12-04T12:14:28;23.27;;;13.67;;
35110;SDS011;21290;50.158;8.658;2023-12-04T12:16:55;20.03;;;12.77;;
35110;SDS011;21290;50.158;8.658;2023-12-04T12:19:23;20.08;;;13.82;;
35110;SDS011;21290;50.158;8.658;2023-12-04T12:21:50;22.43;;;14.17;;
35110;SDS011;21290;50.158;8.658;2023-12-04T12:24:18;22.87;;;13.27;;
35110;SDS011;21290;50.158;8.658;2023-12-04T12:26:45;23.00;;;13.53;;
35110;SDS011;21290;50.158;8.658;2023-12-04T12:29:12;23.80;;;13.70;;
35110;SDS011;21290;50.158;8.658;2023-12-04T12:31:38;23.17;;;14.73;;
35110;SDS011;21290;50.158;8.658;2023-12-04T12:34:05;22.70;;;15.30;;
35110;SDS011;21290;50.158;8.658;2023-12-04T12:36:33;22.90;;;14.60;;
35110;SDS011;21290;50.158;8.658;2023-12-04T12:39:00;25.37;;;15.03;;
35110;SDS011;21290;50.158;8.658;2023-12-04T12:41:30;21.60;;;14.57;;
35110;SDS011;21290;50.158;8.658;2023-12-04T12:43:57;26.90;;;15.60;;
35110;SDS011;21290;50.158;8.658;2023-12-04T12:46:24;27.80;;;14.87;;
35110;SDS011;21290;50.158;8.658;2023-12-04T12:48:52;23.93;;;15.70;;
35110;SDS011;21290;50.158;8.658;2023-12-04T12:51:19;25.43;;;14.93;;
35110;SDS011;21290;50.158;8.658;2023-12-04T12:53:47;24.83;;;15.00;;
35110;SDS011;21290;50.158;8.658;2023-12-04T12:56:17;26.90;;;15.77;;
35110;SDS011;21290;50.158;8.658;2023-12-04T12:58:44;26.50;;;15.93;;
35110;SDS011;21290;50.158;8.658;2023-12-04T13:01:11;26.23;;;15.97;;
35110;SDS011;21290;50.158;8.658;2023-12-04T13:03:38;24.77;;;16.27;;
35110;SDS011;21290;50.158;8.658;2023-12-04T13:06:05;25.47;;;15.03;;
35110;SDS011;21290;50.158;8.658;2023-12-04T13:08:33;27.80;;;15.07;;
35110;SDS011;21290;50.158;8.658;2023-12-04T13:11:00;23.63;;;15.40;;
35110;SDS011;21290;50.158;8.658;2023-12-04T13:13:27;28.27;;;15.43;;
35110;SDS011;21290;50.158;8.658;2023-12-04T13:15:54;23.33;;;14.60;;
35110;SDS011;21290;50.158;8.658;2023-12-04T13:18:21;28.37;;;14.77;;
35110;SDS011;21290;50.158;8.658;2023-12-04T13:20:47;24.63;;;15.37;;
35110;SDS011;21290;50.158;8.658;2023-12-04T13:23:14;22.03;;;14.77;;
35110;SDS011;21290;50.158;8.658;2023-12-04T13:25:41;24.70;;;14.27;;
35110;SDS011;21290;50.158;8.658;2023-12-04T13:28:09;25.67;;;15.57;;
35110;SDS011;21290;50.158;8.658;2023-12-04T13:30:52;24.60;;;14.67;;
35110;SDS011;21290;50.158;8.658;2023-12-04T13:33:19;24.43;;;14.63;;
35110;SDS011;21290;50.158;8.658;2023-12-04T13:35:46;24.80;;;14.37;;
35110;SDS011;21290;50.158;8.658;2023-12-04T13:38:13;22.10;;;14.43;;
35110;SDS011;21290;50.158;8.658;2023-12-04T13:40:48;24.90;;;15.73;;
35110;SDS011;21290;50.158;8.658;2023-12-04T13:43:26;27.30;;;16.70;;
35110;SDS011;21290;50.158;8.658;2023-12-04T13:46:12;25.77;;;15.50;;
35110;SDS011;21290;50.158;8.658;2023-12-04T13:48:38;27.93;;;16.10;;
35110;SDS011;21290;50.158;8.658;2023-12-04T13:51:10;19.40;;;12.02;;
35110;SDS011;21290;50.158;8.658;2023-12-04T13:53:39;23.73;;;15.33;;
35110;SDS011;21290;50.158;8.658;2023-12-04T13:56:11;24.87;;;15.73;;
35110;SDS011;21290;50.158;8.658;2023-12-04T13:58:47;33.20;;;16.53;;
35110;SDS011;21290;50.158;8.658;2023-12-04T14:01:20;42.30;;;17.07;;
35110;SDS011;21290;50.158;8.658;2023-12-04T14:03:50;25.97;;;14.97;;
35110;SDS011;21290;50.158;8.658;2023-12-04T14:08:45;29.37;;;14.90;;
35110;SDS011;21290;50.158;8.658;2023-12-04T14:11:12;28.93;;;16.07;;
35110;SDS011;21290;50.158;8.658;2023-12-04T14:13:40;27.10;;;16.07;;
35110;SDS011;21290;50.158;8.658;2023-12-04T14:16:07;26.20;;;15.47;;
35110;SDS011;21290;50.158;8.658;2023-12-04T14:18:35;30.13;;;17.13;;
35110;SDS011;21290;50.158;8.658;2023-12-04T14:21:01;29.50;;;17.33;;
35110;SDS011;21290;50.158;8.658;2023-12-04T14:23:28;27.47;;;17.50;;
35110;SDS011;21290;50.158;8.658;2023-12-04T14:25:55;30.87;;;16.97;;
35110;SDS011;21290;50.158;8.658;2023-12-04T14:28:22;34.40;;;17.30;;
35110;SDS011;21290;50.158;8.658;2023-12-04T14:30:58;38.40;;;19.07;;
35110;SDS011;21290;50.158;8.658;2023-12-04T14:33:25;36.23;;;19.37;;